sensor_id;sensor_type;location;lat;lon;timestamp;P1;durP1;ratioP1;P2;durP2;ratioP2
41532;SDS011;27262;-35.248;149.138;2023-02-02T00:01:58;6.57;;;1.67;;
41532;SDS011;27262;-35.248;149.138;2023-02-02T00:04:31;3.90;;;2.00;;
41532;SDS011;27262;-35.248;149.138;2023-02-02T00:07:03;6.72;;;2.28;;
41532;SDS011;27262;-35.248;149.138;2023-02-02T00:09:34;4.22;;;1.70;;
41532;SDS011;27262;-35.248;149.138;2023-02-02T00:12:05;4.15;;;1.55;;
41532;SDS011;27262;-35.248;149.138;2023-02-02T00:14:35;6.53;;;2.00;;
41532;SDS011;27262;-35.248;149.138;2023-02-02T00:17:07;3.45;;;1.40;;
41532;SDS011;27262;-35.248;149.138;2023-02-02T00:19:38;4.18;;;1.65;;
41532;SDS011;27262;-35.248;149.138;2023-02-02T00:22:09;4.35;;;1.75;;
41532;SDS011;27262;-35.248;149.138;2023-02-02T00:24:39;3.10;;;1.85;;
41532;SDS011;27262;-35.248;149.138;2023-02-02T00:27:09;6.32;;;2.10;;
41532;SDS011;27262;-35.248;149.138;2023-02-02T00:29:39;6.50;;;2.28;;
41532;SDS011;27262;-35.248;149.138;2023-02-02T00:32:10;6.30;;;2.22;;
41532;SDS011;27262;-35.248;149.138;2023-02-02T00:34:40;8.63;;;2.90;;
41532;SDS011;27262;-35.248;149.138;2023-02-02T00:37:10;13.73;;;2.97;;
41532;SDS011;27262;-35.248;149.138;2023-02-02T00:39:41;12.32;;;3.10;;
41532;SDS011;27262;-35.248;149.138;2023-02-02T00:42:11;10.82;;;3.50;;
41532;SDS011;27262;-35.248;149.138;2023-02-02T00:44:41;10.38;;;3.25;;
41532;SDS011;27262;-35.248;149.138;2023-02-02T00:47:30;14.60;;;3.60;;
41532;SDS011;27262;-35.248;149.138;2023-02-02T00:50:00;8.25;;;2.70;;
41532;SDS011;27262;-35.248;149.138;2023-02-02T00:52:31;10.32;;;3.70;;
41532;SDS011;27262;-35.248;149.138;2023-02-02T00:55:01;10.90;;;3.50;;
41532;SDS011;27262;-35.248;149.138;2023-02-02T00:57:32;9.55;;;3.05;;
41532;SDS011;27262;-35.248;149.138;2023-02-02T01:00:03;16.88;;;3.55;;
41532;SDS011;27262;-35.248;149.138;2023-02-02T01:02:34;10.27;;;3.22;;
41532;SDS011;27262;-35.248;149.138;2023-02-02T01:05:05;9.00;;;2.67;;
41532;SDS011;27262;-35.248;149.138;2023-02-02T01:07:35;10.48;;;2.67;;
41532;SDS011;27262;-35.248;149.138;2023-02-02T01:10:07;14.02;;;3.20;;
41532;SDS011;27262;-35.248;149.138;2023-02-02T01:12:42;7.07;;;2.38;;
41532;SDS011;27262;-35.248;149.138;2023-02-02T01:15:13;9.50;;;2.92;;
41532;SDS011;27262;-35.248;149.138;2023-02-02T01:17:44;7.65;;;2.28;;
41532;SDS011;27262;-35.248;149.138;2023-02-02T01:20:16;7.70;;;2.58;;
41532;SDS011;27262;-35.248;149.138;2023-02-02T01:22:48;6.80;;;2.47;;
41532;SDS011;27262;-35.248;149.138;2023-02-02T01:25:19;9.07;;;2.85;;
41532;SDS011;27262;-35.248;149.138;2023-02-02T01:27:51;5.55;;;2.53;;
41532;SDS011;27262;-35.248;149.138;2023-02-02T01:30:21;8.13;;;2.65;;
41532;SDS011;27262;-35.248;149.138;2023-02-02T01:32:52;7.72;;;2.40;;
41532;SDS011;27262;-35.248;149.138;2023-02-02T01:35:23;5.68;;;2.35;;
41532;SDS011;27262;-35.248;149.138;2023-02-02T01:37:54;8.98;;;2.83;;
41532;SDS011;27262;-35.248;149.138;2023-02-02T01:40:24;7.10;;;2.75;;
41532;SDS011;27262;-35.248;149.138;2023-02-02T01:42:55;10.80;;;3.03;;
41532;SDS011;27262;-35.248;149.138;2023-02-02T01:45:28;7.35;;;2.88;;
41532;SDS011;27262;-35.248;149.138;2023-02-02T01:47:59;5.03;;;2.30;;
41532;SDS011;27262;-35.248;149.138;2023-02-02T01:50:30;7.85;;;2.95;;
41532;SDS011;27262;-35.248;149.138;2023-02-02T01:53:02;5.93;;;2.63;;
41532;SDS011;27262;-35.248;149.138;2023-02-02T01:55:36;6.28;;;2.30;;
41532;SDS011;27262;-35.248;149.138;2023-02-02T01:58:22;7.13;;;3.05;;
41532;SDS011;27262;-35.248;149.138;2023-02-02T02:01:02;7.72;;;2.95;;
41532;SDS011;27262;-35.248;149.138;2023-02-02T02:03:33;5.47;;;2.50;;
41532;SDS011;27262;-35.248;149.138;2023-02-02T02:06:16;9.32;;;2.65;;
41532;SDS011;27262;-35.248;149.138;2023-02-02T02:08:49;7.78;;;2.33;;
41532;SDS011;27262;-35.248;149.138;2023-02-02T02:11:23;3.63;;;2.10;;
41532;SDS011;27262;-35.248;149.138;2023-02-02T02:13:55;7.05;;;2.63;;
41532;SDS011;27262;-35.248;149.138;2023-02-02T02:22:26;5.85;;;2.60;;
41532;SDS011;27262;-35.248;149.138;2023-02-02T02:34:54;5.05;;;2.13;;
41532;SDS011;27262;-35.248;149.138;2023-02-02T02:37:28;4.40;;;2.45;;
41532;SDS011;27262;-35.248;149.138;2023-02-02T02:40:21;5.45;;;1.90;;
41532;SDS011;27262;-35.248;149.138;2023-02-02T02:43:06;6.18;;;2.20;;
41532;SDS011;27262;-35.248;149.138;2023-02-02T02:45:44;5.55;;;1.88;;
41532;SDS011;27262;-35.248;149.138;2023-02-02T02:48:14;3.75;;;2.17;;
41532;SDS011;27262;-35.248;149.138;2023-02-02T02:50:45;9.65;;;2.67;;
41532;SDS011;27262;-35.248;149.138;2023-02-02T02:53:19;7.07;;;2.05;;
41532;SDS011;27262;-35.248;149.138;2023-02-02T02:58:45;7.60;;;2.35;;
41532;SDS011;27262;-35.248;149.138;2023-02-02T03:01:26;8.85;;;2.50;;
41532;SDS011;27262;-35.248;149.138;2023-02-02T03:04:17;7.97;;;2.33;;
41532;SDS011;27262;-35.248;149.138;2023-02-02T03:07:06;3.55;;;1.73;;
41532;SDS011;27262;-35.248;149.138;2023-02-02T03:09:43;5.28;;;1.80;;
41532;SDS011;27262;-35.248;149.138;2023-02-02T03:12:16;5.72;;;2.05;;
41532;SDS011;27262;-35.248;149.138;2023-02-02T03:14:47;3.67;;;2.08;;
41532;SDS011;27262;-35.248;149.138;2023-02-02T03:17:17;9.02;;;2.47;;
41532;SDS011;27262;-35.248;149.138;2023-02-02T03:19:47;9.90;;;1.88;;
41532;SDS011;27262;-35.248;149.138;2023-02-02T03:22:17;8.23;;;1.80;;
41532;SDS011;27262;-35.248;149.138;2023-02-02T03:24:47;4.13;;;2.22;;
41532;SDS011;27262;-35.248;149.138;2023-02-02T03:27:18;4.18;;;1.77;;
41532;SDS011;27262;-35.248;149.138;2023-02-02T03:29:48;4.60;;;1.90;;
41532;SDS011;27262;-35.248;149.138;2023-02-02T03:32:18;4.43;;;2.17;;
41532;SDS011;27262;-35.248;149.138;2023-02-02T03:34:49;3.13;;;1.63;;
41532;SDS011;27262;-35.248;149.138;2023-02-02T03:37:19;3.75;;;1.70;;
41532;SDS011;27262;-35.248;149.138;2023-02-02T03:39:49;3.92;;;1.60;;
41532;SDS011;27262;-35.248;149.138;2023-02-02T03:42:19;4.53;;;2.00;;
41532;SDS011;27262;-35.248;149.138;2023-02-02T03:44:50;4.75;;;1.70;;
41532;SDS011;27262;-35.248;149.138;2023-02-02T03:47:20;4.40;;;1.95;;
41532;SDS011;27262;-35.248;149.138;2023-02-02T03:49:50;6.30;;;1.92;;
41532;SDS011;27262;-35.248;149.138;2023-02-02T03:52:20;3.85;;;1.92;;
41532;SDS011;27262;-35.248;149.138;2023-02-02T03:54:51;4.30;;;1.83;;
41532;SDS011;27262;-35.248;149.138;2023-02-02T03:57:21;3.90;;;1.88;;
41532;SDS011;27262;-35.248;149.138;2023-02-02T03:59:52;4.38;;;1.85;;
41532;SDS011;27262;-35.248;149.138;2023-02-02T04:02:22;3.65;;;1.83;;
41532;SDS011;27262;-35.248;149.138;2023-02-02T04:04:55;3.33;;;1.63;;
41532;SDS011;27262;-35.248;149.138;2023-02-02T04:07:25;3.88;;;1.90;;
41532;SDS011;27262;-35.248;149.138;2023-02-02T04:09:55;2.97;;;1.58;;
41532;SDS011;27262;-35.248;149.138;2023-02-02T04:12:26;3.67;;;1.73;;
41532;SDS011;27262;-35.248;149.138;2023-02-02T04:14:56;4.97;;;2.05;;
41532;SDS011;27262;-35.248;149.138;2023-02-02T04:17:26;4.35;;;1.75;;
41532;SDS011;27262;-35.248;149.138;2023-02-02T04:19:56;4.13;;;1.60;;
41532;SDS011;27262;-35.248;149.138;2023-02-02T04:22:26;4.25;;;1.80;;
41532;SDS011;27262;-35.248;149.138;2023-02-02T04:24:57;3.63;;;1.42;;
41532;SDS011;27262;-35.248;149.138;2023-02-02T04:27:27;3.80;;;1.27;;
41532;SDS011;27262;-35.248;149.138;2023-02-02T04:30:00;2.70;;;1.33;;
41532;SDS011;27262;-35.248;149.138;2023-02-02T04:32:30;1.55;;;1.00;;
41532;SDS011;27262;-35.248;149.138;2023-02-02T04:35:00;2.92;;;1.23;;
41532;SDS011;27262;-35.248;149.138;2023-02-02T04:37:31;2.72;;;0.98;;
41532;SDS011;27262;-35.248;149.138;2023-02-02T04:40:01;2.15;;;0.90;;
41532;SDS011;27262;-35.248;149.138;2023-02-02T04:42:31;4.07;;;0.95;;
41532;SDS011;27262;-35.248;149.138;2023-02-02T04:45:02;3.25;;;0.93;;
41532;SDS011;27262;-35.248;149.138;2023-02-02T04:47:33;4.28;;;0.70;;
41532;SDS011;27262;-35.248;149.138;2023-02-02T04:50:04;6.00;;;0.90;;
41532;SDS011;27262;-35.248;149.138;2023-02-02T04:52:34;2.03;;;0.93;;
41532;SDS011;27262;-35.248;149.138;2023-02-02T04:55:05;1.73;;;0.80;;
41532;SDS011;27262;-35.248;149.138;2023-02-02T04:57:36;1.45;;;0.60;;
41532;SDS011;27262;-35.248;149.138;2023-02-02T05:00:06;3.30;;;0.68;;
41532;SDS011;27262;-35.248;149.138;2023-02-02T05:02:39;1.15;;;0.50;;
41532;SDS011;27262;-35.248;149.138;2023-02-02T05:05:11;1.35;;;0.60;;
41532;SDS011;27262;-35.248;149.138;2023-02-02T05:07:42;1.50;;;0.60;;
41532;SDS011;27262;-35.248;149.138;2023-02-02T05:10:12;3.03;;;0.63;;
41532;SDS011;27262;-35.248;149.138;2023-02-02T05:12:43;1.77;;;0.70;;
41532;SDS011;27262;-35.248;149.138;2023-02-02T05:15:13;3.72;;;0.50;;
41532;SDS011;27262;-35.248;149.138;2023-02-02T05:17:43;3.35;;;0.50;;
41532;SDS011;27262;-35.248;149.138;2023-02-02T05:20:14;1.13;;;0.45;;
41532;SDS011;27262;-35.248;149.138;2023-02-02T05:22:47;3.47;;;0.60;;
41532;SDS011;27262;-35.248;149.138;2023-02-02T05:25:17;3.53;;;0.60;;
41532;SDS011;27262;-35.248;149.138;2023-02-02T05:27:48;2.95;;;0.60;;
41532;SDS011;27262;-35.248;149.138;2023-02-02T05:30:18;0.90;;;0.50;;
41532;SDS011;27262;-35.248;149.138;2023-02-02T05:32:48;4.78;;;0.40;;
41532;SDS011;27262;-35.248;149.138;2023-02-02T05:35:19;2.40;;;0.40;;
41532;SDS011;27262;-35.248;149.138;2023-02-02T05:37:49;1.00;;;0.40;;
41532;SDS011;27262;-35.248;149.138;2023-02-02T05:40:20;1.10;;;0.22;;
41532;SDS011;27262;-35.248;149.138;2023-02-02T05:42:50;0.77;;;0.40;;
41532;SDS011;27262;-35.248;149.138;2023-02-02T05:45:21;1.08;;;0.50;;
41532;SDS011;27262;-35.248;149.138;2023-02-02T05:47:52;1.63;;;0.45;;
41532;SDS011;27262;-35.248;149.138;2023-02-02T05:50:23;0.80;;;0.28;;
41532;SDS011;27262;-35.248;149.138;2023-02-02T05:52:53;2.05;;;0.30;;
41532;SDS011;27262;-35.248;149.138;2023-02-02T05:55:24;1.63;;;0.35;;
41532;SDS011;27262;-35.248;149.138;2023-02-02T05:57:54;0.95;;;0.32;;
41532;SDS011;27262;-35.248;149.138;2023-02-02T06:00:33;3.20;;;0.52;;
41532;SDS011;27262;-35.248;149.138;2023-02-02T06:03:03;0.60;;;0.30;;
41532;SDS011;27262;-35.248;149.138;2023-02-02T06:05:34;2.55;;;0.57;;
41532;SDS011;27262;-35.248;149.138;2023-02-02T06:08:04;2.03;;;0.40;;
41532;SDS011;27262;-35.248;149.138;2023-02-02T06:10:37;2.38;;;0.45;;
41532;SDS011;27262;-35.248;149.138;2023-02-02T06:13:11;3.78;;;0.35;;
41532;SDS011;27262;-35.248;149.138;2023-02-02T06:15:41;2.72;;;0.55;;
41532;SDS011;27262;-35.248;149.138;2023-02-02T06:18:12;4.20;;;0.50;;
41532;SDS011;27262;-35.248;149.138;2023-02-02T06:20:42;10.35;;;0.70;;
41532;SDS011;27262;-35.248;149.138;2023-02-02T06:23:14;2.10;;;0.32;;
41532;SDS011;27262;-35.248;149.138;2023-02-02T06:25:44;6.15;;;0.35;;
41532;SDS011;27262;-35.248;149.138;2023-02-02T06:28:15;3.50;;;0.52;;
41532;SDS011;27262;-35.248;149.138;2023-02-02T06:30:46;1.33;;;0.35;;
41532;SDS011;27262;-35.248;149.138;2023-02-02T06:33:16;1.30;;;0.50;;
41532;SDS011;27262;-35.248;149.138;2023-02-02T06:35:46;1.10;;;0.38;;
41532;SDS011;27262;-35.248;149.138;2023-02-02T06:38:17;1.10;;;0.40;;
41532;SDS011;27262;-35.248;149.138;2023-02-02T06:40:47;2.35;;;0.70;;
41532;SDS011;27262;-35.248;149.138;2023-02-02T06:43:18;2.78;;;0.40;;
41532;SDS011;27262;-35.248;149.138;2023-02-02T06:45:48;2.95;;;0.40;;
41532;SDS011;27262;-35.248;149.138;2023-02-02T06:48:19;1.25;;;0.32;;
41532;SDS011;27262;-35.248;149.138;2023-02-02T06:50:49;3.30;;;0.30;;
41532;SDS011;27262;-35.248;149.138;2023-02-02T06:53:19;0.70;;;0.20;;
41532;SDS011;27262;-35.248;149.138;2023-02-02T06:55:54;1.35;;;0.32;;
41532;SDS011;27262;-35.248;149.138;2023-02-02T06:58:29;3.35;;;0.70;;
41532;SDS011;27262;-35.248;149.138;2023-02-02T07:01:02;5.35;;;0.60;;
41532;SDS011;27262;-35.248;149.138;2023-02-02T07:03:37;3.47;;;0.40;;
41532;SDS011;27262;-35.248;149.138;2023-02-02T07:06:14;2.58;;;0.40;;
41532;SDS011;27262;-35.248;149.138;2023-02-02T07:08:50;2.03;;;0.50;;
41532;SDS011;27262;-35.248;149.138;2023-02-02T07:11:29;4.72;;;0.60;;
41532;SDS011;27262;-35.248;149.138;2023-02-02T07:14:10;3.35;;;0.40;;
41532;SDS011;27262;-35.248;149.138;2023-02-02T07:16:41;1.13;;;0.30;;
41532;SDS011;27262;-35.248;149.138;2023-02-02T07:19:12;3.60;;;0.47;;
41532;SDS011;27262;-35.248;149.138;2023-02-02T07:21:42;4.03;;;0.60;;
41532;SDS011;27262;-35.248;149.138;2023-02-02T07:24:13;1.73;;;0.45;;
41532;SDS011;27262;-35.248;149.138;2023-02-02T07:26:43;1.90;;;0.20;;
41532;SDS011;27262;-35.248;149.138;2023-02-02T07:29:14;4.45;;;0.40;;
41532;SDS011;27262;-35.248;149.138;2023-02-02T07:31:44;1.35;;;0.30;;
41532;SDS011;27262;-35.248;149.138;2023-02-02T07:34:15;1.58;;;0.55;;
41532;SDS011;27262;-35.248;149.138;2023-02-02T07:36:46;3.45;;;0.40;;
41532;SDS011;27262;-35.248;149.138;2023-02-02T07:39:16;3.35;;;0.60;;
41532;SDS011;27262;-35.248;149.138;2023-02-02T07:41:47;2.92;;;0.70;;
41532;SDS011;27262;-35.248;149.138;2023-02-02T07:44:17;3.42;;;0.73;;
41532;SDS011;27262;-35.248;149.138;2023-02-02T07:46:48;2.15;;;0.60;;
41532;SDS011;27262;-35.248;149.138;2023-02-02T07:49:19;4.22;;;0.70;;
41532;SDS011;27262;-35.248;149.138;2023-02-02T07:51:49;3.58;;;0.70;;
41532;SDS011;27262;-35.248;149.138;2023-02-02T07:54:19;11.57;;;1.20;;
41532;SDS011;27262;-35.248;149.138;2023-02-02T07:56:51;1.95;;;0.65;;
41532;SDS011;27262;-35.248;149.138;2023-02-02T07:59:21;1.10;;;0.52;;
41532;SDS011;27262;-35.248;149.138;2023-02-02T08:01:52;1.40;;;0.40;;
41532;SDS011;27262;-35.248;149.138;2023-02-02T08:04:22;5.35;;;0.50;;
41532;SDS011;27262;-35.248;149.138;2023-02-02T08:06:53;2.47;;;0.65;;
41532;SDS011;27262;-35.248;149.138;2023-02-02T08:09:23;2.58;;;0.50;;
41532;SDS011;27262;-35.248;149.138;2023-02-02T08:11:54;3.22;;;0.50;;
41532;SDS011;27262;-35.248;149.138;2023-02-02T08:14:29;2.13;;;0.55;;
41532;SDS011;27262;-35.248;149.138;2023-02-02T08:16:59;3.92;;;0.65;;
41532;SDS011;27262;-35.248;149.138;2023-02-02T08:19:30;3.47;;;0.40;;
41532;SDS011;27262;-35.248;149.138;2023-02-02T08:22:02;3.13;;;0.43;;
41532;SDS011;27262;-35.248;149.138;2023-02-02T08:24:32;1.98;;;0.32;;
41532;SDS011;27262;-35.248;149.138;2023-02-02T08:27:08;2.97;;;0.40;;
41532;SDS011;27262;-35.248;149.138;2023-02-02T08:29:38;2.50;;;0.50;;
41532;SDS011;27262;-35.248;149.138;2023-02-02T08:32:09;2.78;;;0.50;;
41532;SDS011;27262;-35.248;149.138;2023-02-02T08:34:40;1.58;;;0.40;;
41532;SDS011;27262;-35.248;149.138;2023-02-02T08:37:10;1.27;;;0.38;;
41532;SDS011;27262;-35.248;149.138;2023-02-02T08:39:40;4.63;;;0.50;;
41532;SDS011;27262;-35.248;149.138;2023-02-02T08:42:11;4.47;;;0.40;;
41532;SDS011;27262;-35.248;149.138;2023-02-02T08:44:42;1.67;;;0.38;;
41532;SDS011;27262;-35.248;149.138;2023-02-02T08:47:32;2.13;;;0.45;;
41532;SDS011;27262;-35.248;149.138;2023-02-02T08:50:02;5.10;;;0.40;;
41532;SDS011;27262;-35.248;149.138;2023-02-02T08:52:33;3.50;;;0.47;;
41532;SDS011;27262;-35.248;149.138;2023-02-02T08:55:03;2.58;;;0.75;;
41532;SDS011;27262;-35.248;149.138;2023-02-02T08:57:34;4.25;;;0.40;;
41532;SDS011;27262;-35.248;149.138;2023-02-02T09:00:05;2.55;;;0.50;;
41532;SDS011;27262;-35.248;149.138;2023-02-02T09:02:36;1.45;;;0.50;;
41532;SDS011;27262;-35.248;149.138;2023-02-02T09:05:06;4.35;;;0.68;;
41532;SDS011;27262;-35.248;149.138;2023-02-02T09:07:36;3.80;;;0.75;;
41532;SDS011;27262;-35.248;149.138;2023-02-02T09:10:07;1.83;;;0.50;;
41532;SDS011;27262;-35.248;149.138;2023-02-02T09:12:38;4.65;;;0.52;;
41532;SDS011;27262;-35.248;149.138;2023-02-02T09:15:08;2.72;;;0.70;;
41532;SDS011;27262;-35.248;149.138;2023-02-02T09:17:40;3.20;;;0.40;;
41532;SDS011;27262;-35.248;149.138;2023-02-02T09:20:11;2.90;;;0.40;;
41532;SDS011;27262;-35.248;149.138;2023-02-02T09:22:42;2.92;;;0.45;;
41532;SDS011;27262;-35.248;149.138;2023-02-02T09:25:12;5.78;;;0.82;;
41532;SDS011;27262;-35.248;149.138;2023-02-02T09:27:43;6.15;;;0.80;;
41532;SDS011;27262;-35.248;149.138;2023-02-02T09:30:13;5.13;;;0.60;;
41532;SDS011;27262;-35.248;149.138;2023-02-02T09:32:43;5.07;;;0.80;;
41532;SDS011;27262;-35.248;149.138;2023-02-02T09:35:16;1.65;;;0.60;;
41532;SDS011;27262;-35.248;149.138;2023-02-02T09:37:47;2.83;;;0.35;;
41532;SDS011;27262;-35.248;149.138;2023-02-02T09:40:17;3.00;;;0.47;;
41532;SDS011;27262;-35.248;149.138;2023-02-02T09:43:05;2.05;;;0.40;;
41532;SDS011;27262;-35.248;149.138;2023-02-02T09:51:27;3.95;;;0.60;;
41532;SDS011;27262;-35.248;149.138;2023-02-02T09:54:12;4.70;;;0.55;;
41532;SDS011;27262;-35.248;149.138;2023-02-02T09:56:48;2.03;;;0.60;;
41532;SDS011;27262;-35.248;149.138;2023-02-02T09:59:25;1.50;;;0.38;;
41532;SDS011;27262;-35.248;149.138;2023-02-02T10:02:04;1.65;;;0.65;;
41532;SDS011;27262;-35.248;149.138;2023-02-02T10:04:48;2.72;;;0.50;;
41532;SDS011;27262;-35.248;149.138;2023-02-02T10:07:45;8.18;;;0.80;;
41532;SDS011;27262;-35.248;149.138;2023-02-02T10:15:58;7.75;;;0.60;;
41532;SDS011;27262;-35.248;149.138;2023-02-02T10:18:44;3.72;;;0.60;;
41532;SDS011;27262;-35.248;149.138;2023-02-02T10:24:03;1.92;;;0.40;;
41532;SDS011;27262;-35.248;149.138;2023-02-02T10:26:37;0.73;;;0.30;;
41532;SDS011;27262;-35.248;149.138;2023-02-02T10:29:36;1.48;;;0.50;;
41532;SDS011;27262;-35.248;149.138;2023-02-02T10:32:23;2.13;;;0.40;;
41532;SDS011;27262;-35.248;149.138;2023-02-02T10:38:19;2.45;;;0.50;;
41532;SDS011;27262;-35.248;149.138;2023-02-02T10:41:19;1.58;;;0.60;;
41532;SDS011;27262;-35.248;149.138;2023-02-02T10:44:17;2.15;;;0.50;;
41532;SDS011;27262;-35.248;149.138;2023-02-02T10:47:05;2.28;;;0.65;;
41532;SDS011;27262;-35.248;149.138;2023-02-02T10:49:40;1.33;;;0.50;;
41532;SDS011;27262;-35.248;149.138;2023-02-02T10:54:48;2.17;;;0.60;;
41532;SDS011;27262;-35.248;149.138;2023-02-02T11:02:43;1.48;;;0.60;;
41532;SDS011;27262;-35.248;149.138;2023-02-02T11:05:20;2.15;;;0.50;;
41532;SDS011;27262;-35.248;149.138;2023-02-02T11:08:18;6.78;;;0.80;;
41532;SDS011;27262;-35.248;149.138;2023-02-02T11:14:01;1.42;;;0.50;;
41532;SDS011;27262;-35.248;149.138;2023-02-02T11:16:41;2.63;;;0.40;;
41532;SDS011;27262;-35.248;149.138;2023-02-02T11:21:53;1.50;;;0.40;;
41532;SDS011;27262;-35.248;149.138;2023-02-02T11:27:06;2.22;;;0.32;;
41532;SDS011;27262;-35.248;149.138;2023-02-02T11:29:44;1.50;;;0.40;;
41532;SDS011;27262;-35.248;149.138;2023-02-02T11:37:37;1.15;;;0.40;;
41532;SDS011;27262;-35.248;149.138;2023-02-02T11:43:04;1.10;;;0.40;;
41532;SDS011;27262;-35.248;149.138;2023-02-02T11:45:50;1.23;;;0.55;;
41532;SDS011;27262;-35.248;149.138;2023-02-02T11:48:37;0.90;;;0.40;;
41532;SDS011;27262;-35.248;149.138;2023-02-02T11:51:21;1.30;;;0.60;;
41532;SDS011;27262;-35.248;149.138;2023-02-02T11:54:04;1.55;;;0.40;;
41532;SDS011;27262;-35.248;149.138;2023-02-02T11:56:52;1.38;;;0.50;;
41532;SDS011;27262;-35.248;149.138;2023-02-02T11:59:47;2.92;;;0.40;;
41532;SDS011;27262;-35.248;149.138;2023-02-02T12:02:29;1.25;;;0.35;;
41532;SDS011;27262;-35.248;149.138;2023-02-02T12:07:43;1.10;;;0.50;;
41532;SDS011;27262;-35.248;149.138;2023-02-02T12:18:23;1.00;;;0.50;;
41532;SDS011;27262;-35.248;149.138;2023-02-02T12:21:34;0.82;;;0.55;;
41532;SDS011;27262;-35.248;149.138;2023-02-02T12:27:36;2.60;;;0.55;;
41532;SDS011;27262;-35.248;149.138;2023-02-02T12:30:09;1.30;;;0.50;;
41532;SDS011;27262;-35.248;149.138;2023-02-02T12:35:45;1.70;;;0.50;;
41532;SDS011;27262;-35.248;149.138;2023-02-02T12:47:48;1.80;;;0.60;;
41532;SDS011;27262;-35.248;149.138;2023-02-02T12:50:35;2.30;;;0.45;;
41532;SDS011;27262;-35.248;149.138;2023-02-02T12:53:21;2.42;;;0.40;;
41532;SDS011;27262;-35.248;149.138;2023-02-02T12:56:43;1.23;;;0.43;;
41532;SDS011;27262;-35.248;149.138;2023-02-02T13:07:55;1.95;;;0.55;;
41532;SDS011;27262;-35.248;149.138;2023-02-02T13:13:10;0.95;;;0.50;;
41532;SDS011;27262;-35.248;149.138;2023-02-02T13:16:27;0.68;;;0.40;;
41532;SDS011;27262;-35.248;149.138;2023-02-02T13:18:39;2.72;;;0.50;;
41532;SDS011;27262;-35.248;149.138;2023-02-02T13:21:15;1.02;;;0.50;;
41532;SDS011;27262;-35.248;149.138;2023-02-02T13:23:56;1.77;;;0.70;;
41532;SDS011;27262;-35.248;149.138;2023-02-02T13:26:40;1.00;;;0.60;;
41532;SDS011;27262;-35.248;149.138;2023-02-02T13:29:18;1.42;;;0.60;;
41532;SDS011;27262;-35.248;149.138;2023-02-02T13:32:16;2.63;;;0.50;;
41532;SDS011;27262;-35.248;149.138;2023-02-02T13:34:56;1.55;;;0.50;;
41532;SDS011;27262;-35.248;149.138;2023-02-02T13:43:15;0.88;;;0.50;;
41532;SDS011;27262;-35.248;149.138;2023-02-02T13:46:05;1.92;;;0.45;;
41532;SDS011;27262;-35.248;149.138;2023-02-02T13:49:00;1.88;;;0.57;;
41532;SDS011;27262;-35.248;149.138;2023-02-02T13:54:46;0.77;;;0.43;;
41532;SDS011;27262;-35.248;149.138;2023-02-02T13:57:30;0.68;;;0.50;;
41532;SDS011;27262;-35.248;149.138;2023-02-02T14:00:28;2.50;;;0.50;;
41532;SDS011;27262;-35.248;149.138;2023-02-02T14:03:29;3.80;;;0.70;;
41532;SDS011;27262;-35.248;149.138;2023-02-02T14:06:10;3.53;;;0.50;;
41532;SDS011;27262;-35.248;149.138;2023-02-02T14:08:44;2.20;;;0.68;;
41532;SDS011;27262;-35.248;149.138;2023-02-02T14:19:57;1.30;;;0.40;;
41532;SDS011;27262;-35.248;149.138;2023-02-02T14:22:44;1.92;;;0.60;;
41532;SDS011;27262;-35.248;149.138;2023-02-02T14:28:02;2.33;;;0.55;;
41532;SDS011;27262;-35.248;149.138;2023-02-02T14:30:38;2.10;;;0.70;;
41532;SDS011;27262;-35.248;149.138;2023-02-02T14:35:54;2.97;;;0.70;;
41532;SDS011;27262;-35.248;149.138;2023-02-02T14:43:44;1.23;;;0.50;;
41532;SDS011;27262;-35.248;149.138;2023-02-02T14:46:23;1.95;;;0.40;;
41532;SDS011;27262;-35.248;149.138;2023-02-02T14:51:43;1.08;;;0.50;;
41532;SDS011;27262;-35.248;149.138;2023-02-02T14:54:18;1.60;;;0.55;;
41532;SDS011;27262;-35.248;149.138;2023-02-02T14:56:56;2.13;;;0.50;;
41532;SDS011;27262;-35.248;149.138;2023-02-02T15:04:40;2.25;;;0.60;;
41532;SDS011;27262;-35.248;149.138;2023-02-02T15:09:51;4.65;;;0.70;;
41532;SDS011;27262;-35.248;149.138;2023-02-02T15:28:28;2.28;;;0.40;;
41532;SDS011;27262;-35.248;149.138;2023-02-02T15:31:14;3.80;;;0.65;;
41532;SDS011;27262;-35.248;149.138;2023-02-02T15:34:14;2.97;;;0.65;;
41532;SDS011;27262;-35.248;149.138;2023-02-02T15:36:48;2.33;;;0.50;;
41532;SDS011;27262;-35.248;149.138;2023-02-02T15:41:56;2.40;;;0.63;;
41532;SDS011;27262;-35.248;149.138;2023-02-02T15:44:47;1.92;;;0.40;;
41532;SDS011;27262;-35.248;149.138;2023-02-02T15:47:19;2.45;;;0.60;;
41532;SDS011;27262;-35.248;149.138;2023-02-02T15:49:56;1.88;;;0.63;;
41532;SDS011;27262;-35.248;149.138;2023-02-02T15:52:31;2.63;;;0.70;;
41532;SDS011;27262;-35.248;149.138;2023-02-02T15:55:17;1.65;;;0.70;;
41532;SDS011;27262;-35.248;149.138;2023-02-02T15:57:51;1.48;;;0.57;;
41532;SDS011;27262;-35.248;149.138;2023-02-02T16:00:26;1.38;;;0.40;;
41532;SDS011;27262;-35.248;149.138;2023-02-02T16:05:44;2.20;;;0.47;;
41532;SDS011;27262;-35.248;149.138;2023-02-02T16:11:09;1.20;;;0.40;;
41532;SDS011;27262;-35.248;149.138;2023-02-02T16:13:40;1.60;;;0.52;;
41532;SDS011;27262;-35.248;149.138;2023-02-02T16:16:23;2.25;;;0.50;;
41532;SDS011;27262;-35.248;149.138;2023-02-02T16:24:38;6.03;;;0.50;;
41532;SDS011;27262;-35.248;149.138;2023-02-02T16:27:14;2.05;;;0.45;;
41532;SDS011;27262;-35.248;149.138;2023-02-02T16:29:49;2.58;;;0.50;;
41532;SDS011;27262;-35.248;149.138;2023-02-02T16:32:41;0.93;;;0.43;;
41532;SDS011;27262;-35.248;149.138;2023-02-02T16:38:19;1.83;;;0.50;;
41532;SDS011;27262;-35.248;149.138;2023-02-02T16:41:02;1.13;;;0.43;;
41532;SDS011;27262;-35.248;149.138;2023-02-02T16:43:37;1.90;;;0.30;;
41532;SDS011;27262;-35.248;149.138;2023-02-02T16:46:13;1.15;;;0.32;;
41532;SDS011;27262;-35.248;149.138;2023-02-02T16:48:59;2.30;;;0.40;;
41532;SDS011;27262;-35.248;149.138;2023-02-02T16:51:29;2.47;;;0.47;;
41532;SDS011;27262;-35.248;149.138;2023-02-02T16:59:17;0.70;;;0.30;;
41532;SDS011;27262;-35.248;149.138;2023-02-02T17:01:51;0.50;;;0.43;;
41532;SDS011;27262;-35.248;149.138;2023-02-02T17:04:28;1.02;;;0.30;;
41532;SDS011;27262;-35.248;149.138;2023-02-02T17:07:05;1.00;;;0.50;;
41532;SDS011;27262;-35.248;149.138;2023-02-02T17:09:42;0.70;;;0.40;;
41532;SDS011;27262;-35.248;149.138;2023-02-02T17:15:00;0.90;;;0.43;;
41532;SDS011;27262;-35.248;149.138;2023-02-02T17:17:51;2.22;;;0.40;;
41532;SDS011;27262;-35.248;149.138;2023-02-02T17:20:21;1.15;;;0.40;;
41532;SDS011;27262;-35.248;149.138;2023-02-02T17:22:57;0.80;;;0.43;;
41532;SDS011;27262;-35.248;149.138;2023-02-02T17:25:39;0.90;;;0.35;;
41532;SDS011;27262;-35.248;149.138;2023-02-02T17:28:11;1.38;;;0.35;;
41532;SDS011;27262;-35.248;149.138;2023-02-02T17:30:44;1.30;;;0.43;;
41532;SDS011;27262;-35.248;149.138;2023-02-02T17:33:19;0.98;;;0.47;;
41532;SDS011;27262;-35.248;149.138;2023-02-02T17:35:50;1.00;;;0.40;;
41532;SDS011;27262;-35.248;149.138;2023-02-02T17:38:29;0.77;;;0.40;;
41532;SDS011;27262;-35.248;149.138;2023-02-02T17:41:00;0.93;;;0.30;;
41532;SDS011;27262;-35.248;149.138;2023-02-02T17:43:31;1.35;;;0.40;;
41532;SDS011;27262;-35.248;149.138;2023-02-02T17:46:02;2.40;;;0.40;;
41532;SDS011;27262;-35.248;149.138;2023-02-02T17:48:32;0.98;;;0.50;;
41532;SDS011;27262;-35.248;149.138;2023-02-02T17:51:03;0.35;;;0.30;;